createdAt,value
2022-08-19T00:00:52.378Z,4.80
2022-08-19T00:03:21.699Z,4.80
2022-08-19T00:05:50.940Z,4.50
2022-08-19T00:08:20.506Z,5.10
2022-08-19T00:10:50.060Z,5.80
2022-08-19T00:13:19.623Z,5.10
2022-08-19T00:15:49.071Z,5.30
2022-08-19T00:18:18.304Z,5.10
2022-08-19T00:20:47.615Z,5.00
2022-08-19T00:23:18.029Z,4.30
2022-08-19T00:25:48.788Z,5.10
2022-08-19T00:28:18.104Z,5.00
2022-08-19T00:30:47.416Z,5.00
2022-08-19T00:33:18.620Z,4.80
2022-08-19T00:35:47.899Z,5.20
2022-08-19T00:38:36.754Z,4.90
2022-08-19T00:41:08.556Z,5.30
2022-08-19T00:43:38.037Z,5.60
2022-08-19T00:46:07.745Z,5.30
2022-08-19T00:48:38.639Z,4.50
2022-08-19T00:51:08.823Z,4.70
2022-08-19T00:53:38.030Z,5.50
2022-08-19T00:56:08.728Z,5.00
2022-08-19T00:58:39.271Z,6.00
2022-08-19T01:01:09.797Z,4.40
2022-08-19T01:03:58.098Z,5.10
2022-08-19T01:06:29.722Z,5.70
2022-08-19T01:08:59.119Z,4.80
2022-08-19T01:11:30.985Z,5.00
2022-08-19T01:14:00.926Z,4.90
2022-08-19T01:16:32.829Z,4.20
2022-08-19T01:19:02.249Z,5.10
2022-08-19T01:21:54.272Z,4.90
2022-08-19T01:24:23.816Z,4.90
2022-08-19T01:26:53.318Z,5.10
2022-08-19T01:29:22.909Z,5.20
2022-08-19T01:31:55.315Z,5.50
2022-08-19T01:34:25.457Z,5.20
2022-08-19T01:36:55.116Z,5.20
2022-08-19T01:39:27.847Z,5.70
2022-08-19T01:41:57.223Z,4.60
2022-08-19T01:44:26.607Z,4.70
2022-08-19T01:46:55.730Z,4.70
2022-08-19T01:49:28.730Z,5.20
2022-08-19T01:52:00.402Z,6.00
2022-08-19T01:54:29.767Z,5.10
2022-08-19T01:57:09.512Z,5.40
2022-08-19T01:59:39.713Z,5.00
2022-08-19T02:02:12.559Z,5.10
2022-08-19T02:04:42.017Z,4.60
2022-08-19T02:07:11.625Z,4.70
2022-08-19T02:09:41.123Z,4.20
2022-08-19T02:12:11.578Z,4.60
2022-08-19T02:14:40.969Z,4.90
2022-08-19T02:17:10.399Z,5.00
2022-08-19T02:19:39.588Z,4.40
2022-08-19T02:22:10.649Z,4.80
2022-08-19T02:24:40.983Z,4.70
2022-08-19T02:27:10.911Z,4.70
2022-08-19T02:29:40.089Z,4.50
2022-08-19T02:32:10.360Z,5.10
2022-08-19T02:34:39.889Z,5.20
2022-08-19T02:37:29.562Z,4.60
2022-08-19T02:39:59.260Z,4.60
2022-08-19T02:42:28.757Z,4.60
2022-08-19T02:44:59.153Z,5.00
2022-08-19T02:47:28.389Z,4.20
2022-08-19T02:49:57.745Z,4.50
2022-08-19T02:52:27.708Z,4.20
2022-08-19T02:54:59.647Z,5.60
2022-08-19T02:57:29.589Z,4.80
2022-08-19T02:59:59.020Z,5.20
2022-08-19T03:02:28.439Z,4.90
2022-08-19T03:04:57.734Z,4.80
2022-08-19T03:07:27.011Z,4.80
2022-08-19T03:09:56.655Z,4.30
2022-08-19T03:12:25.918Z,5.10
2022-08-19T03:14:56.144Z,5.10
2022-08-19T03:17:25.703Z,5.20
2022-08-19T03:19:54.902Z,4.60
2022-08-19T03:22:23.996Z,4.20
2022-08-19T03:24:53.376Z,4.40
2022-08-19T03:27:22.579Z,4.50
2022-08-19T03:29:52.509Z,5.50
2022-08-19T03:32:32.612Z,4.60
2022-08-19T03:35:02.885Z,4.90
2022-08-19T03:37:37.070Z,5.30
2022-08-19T03:40:07.474Z,5.40
2022-08-19T03:42:48.675Z,5.80
2022-08-19T03:45:19.961Z,5.70
2022-08-19T03:47:49.130Z,5.50
2022-08-19T03:50:20.184Z,5.60
2022-08-19T03:52:54.597Z,5.40
2022-08-19T03:55:24.875Z,4.60
2022-08-19T03:57:58.625Z,4.90
2022-08-19T04:00:28.425Z,4.70
2022-08-19T04:02:58.868Z,4.40
2022-08-19T04:05:31.789Z,5.30
2022-08-19T04:08:01.298Z,5.60
2022-08-19T04:10:31.492Z,5.30
2022-08-19T04:13:00.698Z,5.60
2022-08-19T04:15:35.851Z,4.90
2022-08-19T04:18:07.395Z,5.50
2022-08-19T04:20:44.486Z,5.20
2022-08-19T04:23:16.207Z,5.90
2022-08-19T04:25:47.265Z,5.40
2022-08-19T04:28:16.896Z,5.30
2022-08-19T04:30:53.978Z,5.60
2022-08-19T04:33:28.560Z,5.00
2022-08-19T04:36:00.445Z,5.10
2022-08-19T04:38:30.052Z,5.40
2022-08-19T04:41:17.973Z,5.90
2022-08-19T04:43:52.407Z,5.40
2022-08-19T04:46:39.323Z,5.50
2022-08-19T04:49:13.123Z,5.50
2022-08-19T04:51:46.331Z,6.00
2022-08-19T04:54:30.968Z,7.30
2022-08-19T04:57:08.669Z,6.40
2022-08-19T04:59:39.876Z,5.60
2022-08-19T05:02:11.909Z,5.60
2022-08-19T05:04:41.604Z,5.60
2022-08-19T05:07:12.035Z,5.60
2022-08-19T05:09:57.789Z,5.90
2022-08-19T05:12:30.753Z,6.00
2022-08-19T05:15:01.434Z,5.90
2022-08-19T05:17:34.963Z,5.20
2022-08-19T05:20:29.361Z,5.70
2022-08-19T05:22:58.804Z,5.60
2022-08-19T05:25:28.289Z,5.40
2022-08-19T05:27:57.553Z,5.50
2022-08-19T05:30:42.353Z,5.30
2022-08-19T05:33:16.492Z,5.20
2022-08-19T05:35:46.465Z,5.10
2022-08-19T05:38:15.958Z,5.50
2022-08-19T05:40:50.192Z,5.10
2022-08-19T05:43:19.615Z,5.00
2022-08-19T05:45:49.354Z,6.20
2022-08-19T05:48:19.490Z,7.30
2022-08-19T05:50:52.152Z,6.60
2022-08-19T05:53:22.191Z,6.00
2022-08-19T05:55:51.424Z,5.60
2022-08-19T05:58:23.220Z,6.50
2022-08-19T06:00:56.835Z,5.50
2022-08-19T06:03:26.406Z,6.10
2022-08-19T06:05:56.295Z,5.40
2022-08-19T06:08:33.996Z,5.80
2022-08-19T06:11:24.863Z,5.20
2022-08-19T06:14:00.233Z,5.40
2022-08-19T06:16:30.321Z,5.30
2022-08-19T06:19:03.555Z,4.80
2022-08-19T06:21:33.490Z,5.10
2022-08-19T06:24:03.145Z,5.30
2022-08-19T06:26:33.143Z,5.30
2022-08-19T06:29:02.514Z,5.50
2022-08-19T06:31:35.397Z,5.00
2022-08-19T06:34:07.569Z,5.20
2022-08-19T06:36:44.851Z,4.90
2022-08-19T06:39:21.033Z,5.30
2022-08-19T06:41:56.823Z,5.00
2022-08-19T06:44:31.833Z,5.30
2022-08-19T06:47:01.339Z,5.30
2022-08-19T06:49:39.564Z,5.30
2022-08-19T06:52:09.300Z,5.50
2022-08-19T06:54:56.007Z,5.30
2022-08-19T06:57:27.321Z,5.30
2022-08-19T06:59:58.376Z,5.20
2022-08-19T07:02:28.653Z,5.10
2022-08-19T07:05:00.263Z,5.10
2022-08-19T07:07:30.362Z,5.30
2022-08-19T07:10:01.838Z,5.60
2022-08-19T07:12:38.048Z,5.00
2022-08-19T07:15:10.719Z,5.20
2022-08-19T07:17:41.981Z,4.80
2022-08-19T07:20:12.730Z,5.50
2022-08-19T07:22:42.952Z,4.90
2022-08-19T07:25:15.148Z,5.20
2022-08-19T07:27:46.273Z,5.30
2022-08-19T07:30:16.271Z,5.40
2022-08-19T07:32:45.642Z,5.60
2022-08-19T07:35:14.974Z,5.30
2022-08-19T07:37:46.259Z,5.30
2022-08-19T07:40:16.665Z,5.20
2022-08-19T07:42:46.560Z,5.30
2022-08-19T07:45:15.838Z,5.20
2022-08-19T07:47:48.969Z,5.30
2022-08-19T07:50:25.473Z,5.40
2022-08-19T07:52:54.992Z,5.30
2022-08-19T07:55:42.204Z,5.70
2022-08-19T07:58:16.303Z,5.50
2022-08-19T08:00:48.320Z,5.10
2022-08-19T08:03:20.851Z,5.10
2022-08-19T08:06:09.080Z,5.60
2022-08-19T08:08:56.403Z,5.10
2022-08-19T08:11:28.123Z,5.80
2022-08-19T08:14:01.265Z,5.60
2022-08-19T08:16:39.701Z,5.60
2022-08-19T08:19:25.753Z,5.40
2022-08-19T08:22:02.970Z,5.40
2022-08-19T08:24:34.137Z,6.00
2022-08-19T08:27:11.410Z,5.70
2022-08-19T08:29:43.119Z,5.40
2022-08-19T08:32:14.714Z,5.50
2022-08-19T08:34:45.044Z,5.80
2022-08-19T08:37:16.870Z,5.90
2022-08-19T08:39:46.311Z,5.80
2022-08-19T08:42:37.062Z,5.50
2022-08-19T08:45:19.084Z,5.50
2022-08-19T08:47:54.692Z,5.40
2022-08-19T08:50:48.259Z,5.40
2022-08-19T08:53:29.223Z,5.00
2022-08-19T08:55:59.179Z,5.60
2022-08-19T08:58:43.999Z,5.20
2022-08-19T09:01:15.582Z,5.70
2022-08-19T09:03:47.426Z,5.60
2022-08-19T09:07:18.745Z,5.80
2022-08-19T09:10:26.898Z,5.90
2022-08-19T09:13:30.160Z,5.50
2022-08-19T09:16:27.993Z,5.70
2022-08-19T09:19:03.719Z,6.00
2022-08-19T09:21:36.827Z,5.80
2022-08-19T09:24:08.677Z,5.90
2022-08-19T09:26:47.322Z,6.10
2022-08-19T09:29:22.992Z,5.70
2022-08-19T09:31:52.207Z,6.00
2022-08-19T09:34:22.341Z,5.70
2022-08-19T09:36:55.161Z,6.60
2022-08-19T09:39:25.229Z,5.80
2022-08-19T09:42:06.935Z,6.10
2022-08-19T09:44:46.802Z,6.30
2022-08-19T09:47:17.548Z,6.20
2022-08-19T09:49:50.902Z,5.80
2022-08-19T09:52:20.259Z,6.10
2022-08-19T09:54:51.939Z,5.90
2022-08-19T09:57:21.509Z,6.20
2022-08-19T09:59:50.783Z,5.90
2022-08-19T10:02:22.260Z,6.50
2022-08-19T10:05:10.177Z,6.40
2022-08-19T10:07:40.065Z,6.50
2022-08-19T10:10:11.389Z,6.20
2022-08-19T10:12:42.014Z,6.00
2022-08-19T10:15:11.994Z,6.10
2022-08-19T10:17:41.395Z,6.10
2022-08-19T10:20:17.986Z,6.20
2022-08-19T10:22:47.168Z,6.60
2022-08-19T10:25:21.492Z,6.60
2022-08-19T10:27:51.449Z,6.90
2022-08-19T10:30:21.880Z,6.30
2022-08-19T10:32:54.189Z,5.90
2022-08-19T10:35:25.898Z,6.90
2022-08-19T10:38:01.847Z,6.40
2022-08-19T10:40:31.767Z,6.60
2022-08-19T10:43:01.105Z,6.50
2022-08-19T10:45:30.437Z,6.10
2022-08-19T10:48:00.567Z,7.00
2022-08-19T10:50:48.534Z,6.90
2022-08-19T10:53:18.252Z,6.80
2022-08-19T10:56:06.074Z,7.00
2022-08-19T10:58:35.370Z,6.90
2022-08-19T11:01:04.883Z,8.30
2022-08-19T11:03:34.264Z,6.70
2022-08-19T11:06:06.865Z,7.20
2022-08-19T11:08:39.490Z,6.70
2022-08-19T11:11:10.575Z,6.20
2022-08-19T11:13:46.116Z,7.20
2022-08-19T11:16:20.003Z,7.60
2022-08-19T11:19:00.333Z,7.20
2022-08-19T11:21:36.378Z,6.80
2022-08-19T11:24:13.839Z,6.50
2022-08-19T11:26:47.174Z,6.50
2022-08-19T11:29:18.727Z,6.70
2022-08-19T11:31:51.401Z,6.70
2022-08-19T11:34:27.228Z,6.20
2022-08-19T11:37:02.503Z,7.50
2022-08-19T11:39:34.016Z,6.30
2022-08-19T11:42:25.406Z,6.70
2022-08-19T11:44:56.015Z,6.70
2022-08-19T11:47:26.121Z,6.30
2022-08-19T11:49:55.653Z,6.90
2022-08-19T11:52:25.042Z,6.40
2022-08-19T11:54:54.245Z,6.50
2022-08-19T11:57:23.356Z,6.50
2022-08-19T11:59:54.781Z,6.50
2022-08-19T12:02:25.370Z,6.40
2022-08-19T12:04:54.572Z,6.10
2022-08-19T12:07:23.754Z,6.80
2022-08-19T12:09:53.166Z,6.20
2022-08-19T12:12:25.496Z,6.70
2022-08-19T12:15:00.321Z,6.40
2022-08-19T12:17:30.457Z,7.20
2022-08-19T12:19:59.975Z,6.60
2022-08-19T12:22:30.125Z,6.70
2022-08-19T12:25:00.548Z,7.10
2022-08-19T12:27:40.371Z,6.60
2022-08-19T12:30:18.887Z,6.90
2022-08-19T12:32:48.335Z,7.30
2022-08-19T12:35:17.577Z,7.30
2022-08-19T12:37:56.895Z,6.60
2022-08-19T12:40:28.492Z,7.10
2022-08-19T12:42:57.918Z,6.70
2022-08-19T12:45:27.073Z,6.90
2022-08-19T12:47:57.845Z,6.60
2022-08-19T12:50:27.803Z,7.00
2022-08-19T12:52:58.482Z,6.60
2022-08-19T12:55:30.365Z,7.20
2022-08-19T12:57:59.691Z,6.80
2022-08-19T13:00:29.410Z,7.40
2022-08-19T13:02:59.053Z,6.70
2022-08-19T13:05:32.934Z,6.40
2022-08-19T13:08:02.839Z,7.50
2022-08-19T13:10:38.434Z,7.00
2022-08-19T13:13:11.797Z,6.90
2022-08-19T13:15:43.996Z,6.40
2022-08-19T13:18:14.601Z,6.80
2022-08-19T13:20:52.582Z,6.90
2022-08-19T13:23:22.381Z,6.50
2022-08-19T13:26:04.530Z,6.80
2022-08-19T13:28:53.103Z,7.30
2022-08-19T13:31:45.197Z,6.40
2022-08-19T13:34:15.417Z,6.90
2022-08-19T13:36:45.298Z,7.00
2022-08-19T13:39:15.569Z,7.10
2022-08-19T13:41:50.053Z,7.40
2022-08-19T13:44:21.135Z,7.00
2022-08-19T13:46:54.159Z,6.60
2022-08-19T13:49:25.163Z,7.20
2022-08-19T13:51:54.225Z,6.90
2022-08-19T13:54:23.710Z,6.80
2022-08-19T13:56:53.196Z,6.70
2022-08-19T13:59:22.720Z,7.10
2022-08-19T14:01:52.035Z,7.20
2022-08-19T14:04:21.486Z,6.90
2022-08-19T14:06:50.981Z,6.60
2022-08-19T14:09:20.828Z,7.00
2022-08-19T14:11:50.208Z,7.70
2022-08-19T14:14:19.513Z,7.00
2022-08-19T14:16:49.044Z,7.50
2022-08-19T14:19:19.111Z,7.20
2022-08-19T14:21:48.149Z,7.60
2022-08-19T14:24:17.853Z,7.30
2022-08-19T14:26:46.931Z,7.50
2022-08-19T14:29:16.384Z,6.70
2022-08-19T14:31:46.368Z,7.50
2022-08-19T14:34:15.712Z,7.20
2022-08-19T14:36:45.039Z,7.10
2022-08-19T14:39:15.553Z,7.40
2022-08-19T14:41:45.196Z,7.90
2022-08-19T14:44:15.615Z,7.20
2022-08-19T14:46:49.316Z,7.00
2022-08-19T14:49:20.028Z,7.10
2022-08-19T14:51:49.634Z,6.90
2022-08-19T14:54:18.830Z,6.90
2022-08-19T14:56:48.427Z,6.80
2022-08-19T14:59:17.807Z,6.70
2022-08-19T15:01:50.032Z,7.10
2022-08-19T15:04:19.468Z,7.20
2022-08-19T15:06:48.738Z,7.30
2022-08-19T15:09:18.104Z,6.90
2022-08-19T15:11:47.816Z,6.90
2022-08-19T15:14:18.884Z,7.60
2022-08-19T15:16:48.073Z,7.20
2022-08-19T15:19:17.980Z,7.70
2022-08-19T15:21:47.347Z,7.80
2022-08-19T15:24:17.022Z,7.00
2022-08-19T15:26:48.106Z,7.50
2022-08-19T15:29:18.340Z,7.00
2022-08-19T15:31:48.110Z,7.20
2022-08-19T15:34:19.022Z,7.70
2022-08-19T15:36:48.251Z,7.50
2022-08-19T15:39:17.610Z,7.20
2022-08-19T15:41:48.356Z,7.80
2022-08-19T15:44:23.079Z,7.50
2022-08-19T15:46:52.352Z,7.50
2022-08-19T15:49:24.962Z,7.10
2022-08-19T15:51:58.761Z,7.20
2022-08-19T15:54:28.029Z,7.30
2022-08-19T15:57:16.255Z,8.10
2022-08-19T16:00:03.893Z,7.20
2022-08-19T16:02:53.616Z,8.40
2022-08-19T16:05:47.015Z,7.50
2022-08-19T16:08:16.765Z,7.50
2022-08-19T16:10:46.266Z,7.60
2022-08-19T16:13:15.618Z,7.20
2022-08-19T16:15:46.021Z,7.50
2022-08-19T16:18:15.323Z,7.80
2022-08-19T16:20:45.385Z,7.90
2022-08-19T16:23:15.274Z,7.90
2022-08-19T16:25:44.952Z,7.80
2022-08-19T16:28:14.507Z,7.60
2022-08-19T16:30:48.390Z,7.50
2022-08-19T16:33:19.939Z,7.10
2022-08-19T16:36:00.095Z,8.40
2022-08-19T16:38:37.932Z,8.20
2022-08-19T16:41:07.944Z,7.30
2022-08-19T16:43:40.203Z,7.30
2022-08-19T16:46:10.911Z,7.10
2022-08-19T16:48:44.099Z,7.80
2022-08-19T16:51:14.925Z,7.60
2022-08-19T16:53:46.332Z,7.80
2022-08-19T16:56:16.362Z,7.10
2022-08-19T16:58:45.630Z,7.70
2022-08-19T17:01:15.757Z,8.00
2022-08-19T17:03:45.467Z,7.40
2022-08-19T17:06:22.294Z,8.20
2022-08-19T17:08:55.568Z,7.60
2022-08-19T17:11:27.560Z,8.10
2022-08-19T17:14:00.032Z,8.10
2022-08-19T17:16:35.250Z,7.30
2022-08-19T17:19:08.394Z,7.30
2022-08-19T17:21:41.519Z,8.20
2022-08-19T17:24:11.116Z,7.40
2022-08-19T17:26:41.054Z,8.00
2022-08-19T17:29:10.842Z,8.30
2022-08-19T17:31:40.179Z,7.60
2022-08-19T17:34:10.060Z,8.40
2022-08-19T17:36:39.878Z,7.50
2022-08-19T17:39:09.324Z,7.70
2022-08-19T17:41:38.592Z,7.70
2022-08-19T17:44:08.921Z,9.10
2022-08-19T17:46:38.777Z,7.90
2022-08-19T17:49:08.666Z,8.10
2022-08-19T17:51:42.212Z,7.80
2022-08-19T17:54:18.014Z,8.00
2022-08-19T17:56:47.997Z,7.90
2022-08-19T17:59:18.320Z,8.40
2022-08-19T18:01:53.275Z,8.40
2022-08-19T18:04:26.747Z,9.80
2022-08-19T18:06:57.025Z,8.90
2022-08-19T18:09:42.087Z,8.60
2022-08-19T18:12:17.403Z,7.20
2022-08-19T18:14:47.630Z,7.30
2022-08-19T18:17:20.226Z,7.60
2022-08-19T18:19:50.246Z,8.00
2022-08-19T18:22:48.826Z,7.50
2022-08-19T18:25:27.019Z,7.70
2022-08-19T18:28:01.633Z,7.30
2022-08-19T18:30:35.802Z,7.20
2022-08-19T18:33:16.422Z,7.10
2022-08-19T18:35:49.927Z,7.60
2022-08-19T18:38:41.138Z,7.90
2022-08-19T18:41:29.415Z,7.70
2022-08-19T18:44:17.423Z,8.70
2022-08-19T18:47:05.075Z,7.50
2022-08-19T18:49:36.643Z,7.90
2022-08-19T18:52:07.264Z,7.50
2022-08-19T18:54:37.984Z,7.50
2022-08-19T18:57:07.997Z,8.20
2022-08-19T18:59:37.808Z,8.00
2022-08-19T19:02:07.120Z,8.40
2022-08-19T19:04:40.097Z,7.80
2022-08-19T19:07:10.962Z,7.40
2022-08-19T19:09:41.668Z,8.10
2022-08-19T19:12:13.139Z,8.50
2022-08-19T19:14:49.377Z,8.40
2022-08-19T19:17:27.048Z,10.60
2022-08-19T19:19:56.969Z,9.20
2022-08-19T19:22:26.740Z,8.60
2022-08-19T19:24:56.745Z,8.00
2022-08-19T19:27:26.418Z,9.10
2022-08-19T19:29:56.966Z,9.40
2022-08-19T19:32:33.829Z,8.70
2022-08-19T19:35:08.107Z,9.20
2022-08-19T19:37:37.497Z,9.50
2022-08-19T19:40:07.353Z,9.90
2022-08-19T19:42:36.836Z,10.00
2022-08-19T19:45:06.551Z,10.70
2022-08-19T19:47:36.451Z,9.70
2022-08-19T19:50:15.176Z,9.70
2022-08-19T19:52:47.800Z,11.60
2022-08-19T19:55:21.801Z,10.60
2022-08-19T19:57:51.219Z,10.70
2022-08-19T20:00:22.360Z,12.20
2022-08-19T20:02:52.522Z,11.30
2022-08-19T20:05:22.985Z,10.90
2022-08-19T20:08:13.011Z,11.70
2022-08-19T20:10:44.763Z,11.60
2022-08-19T20:13:16.702Z,11.20
2022-08-19T20:15:46.779Z,11.20
2022-08-19T20:18:16.103Z,11.60
2022-08-19T20:20:51.162Z,12.00
2022-08-19T20:23:23.228Z,11.70
2022-08-19T20:25:53.942Z,11.60
2022-08-19T20:28:23.724Z,10.80
2022-08-19T20:30:55.246Z,11.50
2022-08-19T20:33:24.610Z,11.20
2022-08-19T20:35:54.070Z,11.50
2022-08-19T20:38:23.890Z,11.70
2022-08-19T20:40:53.930Z,10.50
2022-08-19T20:43:23.261Z,10.60
2022-08-19T20:45:52.694Z,10.90
2022-08-19T20:48:22.012Z,11.20
2022-08-19T20:50:54.822Z,11.00
2022-08-19T20:53:25.800Z,10.60
2022-08-19T20:55:59.767Z,11.10
2022-08-19T20:58:29.810Z,10.90
2022-08-19T21:01:03.468Z,10.30
2022-08-19T21:03:42.965Z,10.00
2022-08-19T21:06:15.047Z,10.30
2022-08-19T21:08:44.346Z,10.50
2022-08-19T21:11:14.962Z,10.40
2022-08-19T21:13:50.169Z,10.70
2022-08-19T21:16:19.627Z,9.80
2022-08-19T21:18:49.318Z,9.40
2022-08-19T21:21:18.968Z,9.10
2022-08-19T21:23:49.643Z,8.40
2022-08-19T21:26:19.241Z,9.50
2022-08-19T21:28:48.429Z,8.90
2022-08-19T21:31:18.977Z,8.90
2022-08-19T21:33:48.567Z,8.60
2022-08-19T21:36:18.284Z,9.50
2022-08-19T21:38:47.482Z,8.30
2022-08-19T21:41:16.846Z,8.40
2022-08-19T21:43:46.055Z,9.20
2022-08-19T21:46:15.332Z,8.50
2022-08-19T21:48:44.829Z,8.00
2022-08-19T21:51:14.182Z,7.70
2022-08-19T21:53:43.714Z,8.00
2022-08-19T21:56:13.995Z,8.70
2022-08-19T21:58:43.366Z,8.60
2022-08-19T22:01:13.067Z,13.50
2022-08-19T22:03:42.632Z,9.30
2022-08-19T22:06:12.214Z,8.50
2022-08-19T22:08:43.232Z,8.50
2022-08-19T22:11:13.053Z,8.70
2022-08-19T22:13:42.681Z,8.00
2022-08-19T22:16:12.408Z,7.90
2022-08-19T22:18:41.962Z,7.70
2022-08-19T22:21:12.261Z,8.20
2022-08-19T22:23:45.561Z,8.30
2022-08-19T22:26:17.709Z,8.10
2022-08-19T22:28:47.090Z,8.40
2022-08-19T22:31:17.531Z,7.60
2022-08-19T22:33:46.733Z,8.60
2022-08-19T22:36:16.331Z,7.80
2022-08-19T22:38:45.610Z,7.90
2022-08-19T22:41:16.738Z,8.60
2022-08-19T22:43:47.869Z,8.80
2022-08-19T22:46:17.851Z,9.10
2022-08-19T22:48:55.993Z,8.30
2022-08-19T22:51:49.274Z,8.30
2022-08-19T22:54:19.157Z,8.40
2022-08-19T22:56:48.430Z,7.90
2022-08-19T22:59:17.638Z,8.00
2022-08-19T23:01:47.406Z,9.00
2022-08-19T23:04:16.591Z,8.70
2022-08-19T23:06:46.364Z,8.80
2022-08-19T23:09:16.488Z,8.10
2022-08-19T23:11:47.189Z,8.40
2022-08-19T23:14:18.597Z,8.00
2022-08-19T23:16:51.202Z,9.10
2022-08-19T23:19:21.872Z,7.50
2022-08-19T23:21:51.569Z,8.50
2022-08-19T23:24:21.184Z,8.20
2022-08-19T23:27:09.500Z,7.80
2022-08-19T23:29:57.167Z,8.10
2022-08-19T23:32:26.742Z,7.90
2022-08-19T23:34:58.117Z,7.80
2022-08-19T23:37:30.074Z,8.60
2022-08-19T23:39:59.365Z,8.80
2022-08-19T23:42:31.438Z,7.80
2022-08-19T23:45:09.309Z,8.00
2022-08-19T23:47:41.370Z,7.30
2022-08-19T23:50:13.187Z,7.80
2022-08-19T23:52:54.733Z,8.40
2022-08-19T23:55:32.908Z,8.10
2022-08-19T23:58:02.821Z,8.20
